Time;durP1;ratioP1;P1;durP2;ratioP2;P2;SDS_P1;SDS_P2;PMS_P1;PMS_P2;Temp;Humidity;BMP_temperature;BMP_pressure;BME280_temperature;BME280_humidity;BME280_pressure;Samples;Min_cycle;Max_cycle;Signal;HPM_P1;HPM_P2
2023/09/26 00:00:20;;;;;;;3.10;1.13;;;14.90;1.00;;;;;;5035740;28;20351;-91
2023/09/26 00:02:48;;;;;;;2.28;1.27;;;14.90;1.00;;;;;;5062067;28;20043;-90
2023/09/26 00:05:15;;;;;;;3.20;1.00;;;14.90;1.00;;;;;;5043472;28;20056;-88
2023/09/26 00:07:42;;;;;;;2.75;1.08;;;14.90;1.50;;;;;;5049057;28;20050;-88
2023/09/26 00:10:12;;;;;;;3.65;1.25;;;14.90;71.90;;;;;;5071944;28;20052;-89
2023/09/26 00:12:40;;;;;;;1.83;1.00;;;14.90;99.90;;;;;;5071270;28;20048;-89
2023/09/26 00:15:07;;;;;;;8.93;1.80;;;14.90;99.90;;;;;;5039716;28;20642;-88
2023/09/26 00:17:34;;;;;;;2.38;1.20;;;14.90;99.90;;;;;;5057238;28;20080;-88
2023/09/26 00:20:09;;;;;;;2.65;1.30;;;14.90;99.90;;;;;;5039755;28;20044;-90
2023/09/26 00:22:36;;;;;;;3.33;1.05;;;14.80;99.90;;;;;;5048519;28;20064;-89
2023/09/26 00:25:12;;;;;;;4.75;1.58;;;14.80;99.90;;;;;;5059923;28;20377;-89
2023/09/26 00:27:40;;;;;;;4.25;0.95;;;14.70;99.90;;;;;;5079681;28;20577;-89
2023/09/26 00:30:08;;;;;;;3.15;1.15;;;14.70;99.90;;;;;;5079819;28;20041;-89
2023/09/26 00:32:38;;;;;;;1.40;0.90;;;14.70;99.90;;;;;;5069431;28;20044;-90
2023/09/26 00:35:08;;;;;;;3.03;1.20;;;14.70;99.90;;;;;;5066450;28;20040;-89
2023/09/26 00:37:36;;;;;;;1.40;0.70;;;14.60;99.90;;;;;;5041062;28;20041;-89
2023/09/26 00:40:03;;;;;;;2.53;0.90;;;14.60;1.00;;;;;;5081830;28;20055;-89
2023/09/26 00:42:32;;;;;;;1.63;0.80;;;14.50;1.00;;;;;;5046519;28;20052;-88
2023/09/26 00:44:59;;;;;;;2.55;1.25;;;14.50;1.00;;;;;;5062812;28;20147;-88
2023/09/26 00:47:26;;;;;;;4.05;1.92;;;14.50;1.00;;;;;;5036087;28;20044;-89
2023/09/26 00:49:53;;;;;;;4.65;1.80;;;14.40;1.00;;;;;;5086193;28;20040;-89
2023/09/26 00:52:20;;;;;;;2.45;1.27;;;14.30;1.00;;;;;;5069554;28;20040;-89
2023/09/26 00:54:47;;;;;;;2.78;0.95;;;14.30;1.00;;;;;;5046081;28;20044;-89
2023/09/26 00:57:14;;;;;;;2.17;0.80;;;14.30;99.90;;;;;;5081633;28;20052;-89
2023/09/26 00:59:41;;;;;;;2.83;1.05;;;14.20;99.90;;;;;;5053661;28;20053;-89
2023/09/26 01:02:10;;;;;;;2.65;1.05;;;14.20;99.90;;;;;;5046898;28;20048;-89
2023/09/26 01:04:37;;;;;;;2.50;1.00;;;14.20;99.90;;;;;;5051160;28;20073;-88
2023/09/26 01:07:05;;;;;;;1.52;0.82;;;14.30;99.90;;;;;;5022342;28;20045;-89
2023/09/26 01:09:32;;;;;;;1.10;0.80;;;14.30;1.00;;;;;;5053280;28;20064;-89
2023/09/26 01:11:59;;;;;;;1.60;0.80;;;14.30;1.00;;;;;;5035131;28;20052;-89
2023/09/26 01:14:26;;;;;;;1.52;0.88;;;14.40;1.00;;;;;;5049640;28;20037;-88
2023/09/26 01:16:54;;;;;;;1.92;0.85;;;14.40;1.00;;;;;;5036372;28;20059;-88
2023/09/26 01:19:22;;;;;;;2.50;0.88;;;14.50;1.00;;;;;;5034120;28;20049;-89
2023/09/26 01:21:49;;;;;;;1.73;0.90;;;14.40;1.00;;;;;;5034979;28;20445;-88
2023/09/26 01:24:17;;;;;;;1.60;0.80;;;14.40;1.00;;;;;;5050326;28;20055;-89
2023/09/26 01:26:45;;;;;;;1.70;0.80;;;14.40;1.60;;;;;;5042545;28;20044;-91
2023/09/26 01:29:12;;;;;;;1.35;0.70;;;14.40;1.00;;;;;;5057382;28;20057;-89
2023/09/26 01:31:42;;;;;;;1.45;0.80;;;14.40;1.00;;;;;;5059150;28;20053;-89
2023/09/26 01:34:09;;;;;;;1.95;1.05;;;14.40;1.00;;;;;;5040339;28;20060;-88
2023/09/26 01:36:41;;;;;;;1.17;0.77;;;14.40;20.70;;;;;;5036799;28;20049;-89
2023/09/26 01:39:13;;;;;;;1.73;0.93;;;14.50;52.80;;;;;;5058812;28;20049;-89
2023/09/26 01:41:42;;;;;;;1.30;0.80;;;14.50;1.00;;;;;;5060600;28;20824;-88
2023/09/26 01:44:09;;;;;;;1.52;0.60;;;14.40;1.00;;;;;;5050127;28;20048;-88
2023/09/26 01:46:48;;;;;;;2.00;0.73;;;14.40;18.10;;;;;;5047894;28;20114;-89
2023/09/26 01:49:16;;;;;;;1.00;0.75;;;14.30;99.90;;;;;;5029783;28;20136;-89
2023/09/26 01:51:45;;;;;;;1.17;0.65;;;14.30;99.90;;;;;;5042145;28;20040;-89
2023/09/26 01:54:23;;;;;;;1.95;0.70;;;14.30;99.90;;;;;;5068487;28;20056;-89
2023/09/26 01:56:51;;;;;;;1.58;0.73;;;14.40;99.90;;;;;;5063320;28;20132;-88
2023/09/26 01:59:21;;;;;;;2.50;1.00;;;14.40;99.90;;;;;;5037612;28;20057;-89
2023/09/26 02:01:50;;;;;;;1.73;0.82;;;14.40;99.90;;;;;;5069858;28;20484;-88
2023/09/26 02:04:18;;;;;;;2.50;1.00;;;14.40;99.90;;;;;;5040127;28;20049;-89
2023/09/26 02:06:45;;;;;;;2.42;0.93;;;14.30;99.90;;;;;;5076183;28;20055;-89
2023/09/26 02:09:13;;;;;;;2.53;1.00;;;14.30;99.90;;;;;;5060650;28;20040;-88
2023/09/26 02:11:52;;;;;;;1.25;0.60;;;14.30;99.90;;;;;;5068802;28;20044;-89
2023/09/26 02:14:23;;;;;;;2.03;0.80;;;14.20;99.90;;;;;;5060066;28;20094;-89
2023/09/26 02:16:52;;;;;;;1.08;0.90;;;14.20;99.90;;;;;;5067399;28;20072;-90
2023/09/26 02:19:20;;;;;;;2.45;1.02;;;14.20;99.90;;;;;;5052005;28;20075;-89
2023/09/26 02:21:47;;;;;;;1.55;0.68;;;14.20;99.90;;;;;;5043554;28;20093;-88
2023/09/26 02:24:21;;;;;;;1.92;1.00;;;14.20;99.90;;;;;;5070766;28;20131;-89
2023/09/26 02:26:48;;;;;;;1.50;0.70;;;14.20;99.90;;;;;;5044702;28;20055;-89
2023/09/26 02:29:15;;;;;;;2.40;0.98;;;14.20;99.90;;;;;;5068025;28;20495;-90
2023/09/26 02:31:48;;;;;;;0.98;0.57;;;14.20;99.90;;;;;;5073402;28;20059;-88
2023/09/26 02:34:22;;;;;;;;;;;14.20;99.90;;;;;;5052353;28;20571;-88
2023/09/26 02:36:55;;;;;;;1.45;0.70;;;14.20;99.90;;;;;;5068726;28;19924;-89
2023/09/26 02:39:31;;;;;;;2.30;0.82;;;14.20;1.00;;;;;;5064044;28;20044;-89
2023/09/26 02:42:00;;;;;;;2.08;0.88;;;14.20;1.00;;;;;;5085088;28;20420;-90
2023/09/26 02:44:36;;;;;;;1.60;0.88;;;14.20;99.90;;;;;;5076389;28;20391;-89
2023/09/26 02:47:03;;;;;;;1.35;0.70;;;14.20;99.90;;;;;;5084323;28;20539;-89
2023/09/26 02:49:34;;;;;;;1.00;0.65;;;14.30;99.90;;;;;;5061874;28;20070;-89
2023/09/26 02:52:10;;;;;;;1.33;0.77;;;14.30;99.90;;;;;;5063525;28;20045;-88
2023/09/26 02:54:38;;;;;;;2.45;1.30;;;14.40;99.90;;;;;;5074130;28;20186;-89
2023/09/26 02:57:05;;;;;;;1.60;0.77;;;14.40;99.90;;;;;;5048407;28;20543;-90
2023/09/26 02:59:35;;;;;;;1.38;0.75;;;14.40;99.90;;;;;;5069035;28;20135;-90
2023/09/26 03:02:11;;;;;;;2.42;0.73;;;14.40;99.90;;;;;;5040897;28;20044;-89
2023/09/26 03:04:41;;;;;;;1.42;0.90;;;14.40;99.90;;;;;;5102115;28;20059;-90
2023/09/26 03:07:09;;;;;;;1.92;0.82;;;14.40;99.90;;;;;;5029971;28;20049;-89
2023/09/26 03:09:37;;;;;;;2.40;1.00;;;14.40;99.90;;;;;;5029955;28;20058;-89
2023/09/26 03:12:11;;;;;;;2.28;0.70;;;14.50;99.90;;;;;;5031141;28;20045;-88
2023/09/26 03:14:41;;;;;;;2.47;0.90;;;14.50;99.90;;;;;;5071137;28;20056;-90
2023/09/26 03:17:10;;;;;;;1.55;0.80;;;14.50;1.00;;;;;;5036458;28;20045;-90
2023/09/26 03:19:38;;;;;;;2.30;1.05;;;14.60;1.00;;;;;;5068480;28;20045;-89
2023/09/26 03:22:06;;;;;;;2.40;1.20;;;14.60;1.00;;;;;;5035065;28;20291;-89
2023/09/26 03:24:33;;;;;;;1.65;0.90;;;14.60;1.00;;;;;;5050866;28;20046;-90
2023/09/26 03:27:00;;;;;;;1.58;0.90;;;14.60;1.00;;;;;;5041939;28;20130;-89
2023/09/26 03:29:26;;;;;;;1.35;0.70;;;14.70;1.00;;;;;;5059677;28;20468;-89
2023/09/26 03:31:54;;;;;;;1.75;0.80;;;14.70;1.00;;;;;;5016455;28;20053;-89
2023/09/26 03:34:24;;;;;;;1.38;0.73;;;14.60;1.00;;;;;;5018538;28;20046;-89
2023/09/26 03:37:01;;;;;;;2.50;1.17;;;14.60;1.00;;;;;;5015714;28;20412;-90
2023/09/26 03:39:30;;;;;;;2.05;0.98;;;14.70;1.00;;;;;;5039187;28;20048;-89
2023/09/26 03:41:58;;;;;;;1.85;0.95;;;14.60;1.00;;;;;;5003504;28;20120;-89
2023/09/26 03:44:29;;;;;;;2.38;1.17;;;14.60;1.00;;;;;;5043908;28;20037;-88
2023/09/26 03:46:59;;;;;;;2.20;0.80;;;14.60;1.00;;;;;;5026126;28;20060;-89
2023/09/26 03:49:28;;;;;;;2.40;1.02;;;14.60;1.00;;;;;;5030365;28;20542;-88
2023/09/26 03:51:55;;;;;;;1.80;1.00;;;14.70;1.00;;;;;;5021842;28;20045;-90
2023/09/26 03:54:22;;;;;;;0.90;0.60;;;14.70;1.00;;;;;;5021573;28;20049;-88
2023/09/26 03:56:50;;;;;;;1.20;0.90;;;14.70;1.00;;;;;;5024903;28;20048;-88
2023/09/26 03:59:18;;;;;;;1.65;0.82;;;14.70;1.00;;;;;;5016751;28;20049;-89
2023/09/26 04:01:49;;;;;;;1.55;0.80;;;14.70;1.00;;;;;;5016340;28;20211;-90
2023/09/26 04:04:17;;;;;;;1.52;0.80;;;14.80;1.00;;;;;;5007964;28;20045;-90
2023/09/26 04:06:44;;;;;;;1.23;0.85;;;14.80;1.00;;;;;;5037668;28;20056;-88
2023/09/26 04:09:19;;;;;;;1.50;0.80;;;14.80;23.90;;;;;;5077759;28;20066;-89
2023/09/26 04:11:48;;;;;;;2.42;0.90;;;14.80;42.60;;;;;;5059501;28;20068;-89
2023/09/26 04:14:15;;;;;;;2.05;1.00;;;14.80;91.00;;;;;;5071818;28;20056;-90
2023/09/26 04:16:45;;;;;;;2.80;1.20;;;14.90;99.90;;;;;;5073610;28;20048;-90
2023/09/26 04:19:13;;;;;;;1.90;1.20;;;14.90;99.90;;;;;;5064483;28;20052;-89
2023/09/26 04:21:42;;;;;;;2.03;0.82;;;14.90;99.90;;;;;;5042934;28;20063;-88
2023/09/26 04:24:09;;;;;;;2.00;0.98;;;14.90;99.90;;;;;;5043606;28;20048;-88
2023/09/26 04:26:37;;;;;;;2.08;1.13;;;15.00;99.90;;;;;;5070312;28;20052;-90
2023/09/26 04:29:05;;;;;;;1.92;1.10;;;15.00;99.90;;;;;;5066504;28;20071;-90
2023/09/26 04:31:32;;;;;;;2.95;1.10;;;15.00;99.90;;;;;;5061768;28;20036;-88
2023/09/26 04:33:59;;;;;;;3.72;1.98;;;15.10;99.90;;;;;;5065060;28;20388;-90
2023/09/26 04:36:28;;;;;;;2.42;1.23;;;15.10;99.90;;;;;;5055265;28;20502;-90
2023/09/26 04:38:55;;;;;;;2.30;1.23;;;15.10;99.90;;;;;;5064257;28;20112;-89
2023/09/26 04:41:22;;;;;;;1.85;1.10;;;15.10;99.90;;;;;;5056470;28;20047;-90
2023/09/26 04:43:50;;;;;;;1.75;1.20;;;15.10;99.90;;;;;;5043348;28;20510;-91
2023/09/26 04:46:18;;;;;;;2.30;1.17;;;15.20;99.90;;;;;;5062654;28;20802;-90
2023/09/26 04:48:46;;;;;;;2.70;1.15;;;15.20;99.90;;;;;;5057049;28;20056;-89
2023/09/26 04:51:14;;;;;;;2.55;1.50;;;15.20;99.90;;;;;;5046510;28;20044;-90
2023/09/26 04:53:42;;;;;;;3.40;1.48;;;15.30;99.90;;;;;;5054818;28;20486;-90
2023/09/26 04:56:09;;;;;;;1.42;0.80;;;15.40;99.90;;;;;;5045559;28;20052;-89
2023/09/26 04:58:39;;;;;;;1.25;0.70;;;15.40;1.00;;;;;;5050849;28;20048;-86
2023/09/26 05:01:13;;;;;;;2.75;1.00;;;15.40;1.00;;;;;;5067319;28;20051;-87
2023/09/26 05:03:44;;;;;;;1.83;0.90;;;15.40;1.00;;;;;;5061474;28;20106;-90
2023/09/26 05:06:12;;;;;;;1.45;1.10;;;15.50;1.00;;;;;;5063386;28;20056;-90
2023/09/26 05:08:39;;;;;;;2.10;0.90;;;15.50;14.10;;;;;;5061749;28;20117;-90
2023/09/26 05:11:06;;;;;;;1.60;0.88;;;15.50;36.70;;;;;;5060287;28;20055;-90
2023/09/26 05:13:33;;;;;;;2.10;1.33;;;15.60;69.90;;;;;;5060053;28;20072;-89
2023/09/26 05:16:01;;;;;;;2.38;1.10;;;15.60;90.20;;;;;;5047830;28;20067;-90
2023/09/26 05:18:28;;;;;;;2.03;1.30;;;15.70;86.00;;;;;;5063163;28;20112;-89
2023/09/26 05:20:56;;;;;;;1.70;0.98;;;15.70;97.50;;;;;;5041916;28;20086;-89
2023/09/26 05:23:24;;;;;;;2.88;1.27;;;15.70;99.90;;;;;;5050958;28;20048;-91
2023/09/26 05:25:53;;;;;;;3.50;1.63;;;15.80;99.90;;;;;;5052051;28;20059;-90
2023/09/26 05:28:20;;;;;;;3.15;1.70;;;15.80;99.90;;;;;;5053217;28;20048;-89
2023/09/26 05:30:47;;;;;;;2.28;1.58;;;15.90;99.90;;;;;;5052454;28;20092;-91
2023/09/26 05:33:14;;;;;;;2.45;1.40;;;16.00;99.90;;;;;;5080264;28;20052;-89
2023/09/26 05:35:42;;;;;;;2.33;1.50;;;16.00;99.90;;;;;;5083803;28;20059;-88
2023/09/26 05:38:10;;;;;;;2.30;1.38;;;16.00;99.90;;;;;;5058093;28;20055;-91
2023/09/26 05:40:38;;;;;;;2.03;1.13;;;16.00;99.90;;;;;;5072768;28;20058;-92
2023/09/26 05:43:05;;;;;;;1.70;1.05;;;16.00;99.90;;;;;;5051048;28;20048;-86
2023/09/26 05:45:33;;;;;;;1.80;1.40;;;16.00;99.90;;;;;;5069872;28;20100;-87
2023/09/26 05:48:00;;;;;;;1.58;1.15;;;16.00;99.90;;;;;;5066802;28;20461;-86
2023/09/26 05:50:27;;;;;;;2.03;1.38;;;16.00;99.90;;;;;;5052284;28;20056;-90
2023/09/26 05:52:56;;;;;;;2.03;1.40;;;16.00;99.90;;;;;;5072562;28;20048;-90
2023/09/26 05:55:25;;;;;;;2.30;1.17;;;16.10;99.90;;;;;;5064939;28;20063;-93
2023/09/26 05:57:57;;;;;;;2.20;1.33;;;16.10;99.90;;;;;;5078739;28;20415;-95
2023/09/26 06:00:28;;;;;;;3.60;1.55;;;16.10;99.90;;;;;;5090046;28;20042;-93
2023/09/26 06:03:24;;;;;;;2.17;1.35;;;16.20;1.00;;;;;;5102670;28;20027;-90
2023/09/26 06:10:30;;;;;;;1.40;1.05;;;16.30;1.00;;;;;;5104935;28;20051;-93
2023/09/26 06:13:24;;;;;;;2.65;1.60;;;16.30;1.00;;;;;;5097701;28;20055;-93
2023/09/26 06:15:51;;;;;;;2.20;1.30;;;16.30;1.00;;;;;;5082679;28;20059;-93
2023/09/26 06:18:37;;;;;;;2.40;1.50;;;16.40;1.00;;;;;;5087562;28;20078;-94
2023/09/26 06:25:56;;;;;;;2.70;1.35;;;16.50;1.00;;;;;;5095456;28;20130;-94
2023/09/26 06:29:56;;;;;;;2.13;1.58;;;16.50;1.00;;;;;;5055426;28;20088;-93
2023/09/26 06:33:15;;;;;;;1.75;1.25;;;16.60;1.00;;;;;;5092983;28;20055;-94
2023/09/26 06:40:27;;;;;;;2.45;1.48;;;16.70;1.00;;;;;;5049619;28;20052;-93
2023/09/26 06:47:27;;;;;;;3.20;1.30;;;16.80;1.00;;;;;;5093576;28;20044;-91
2023/09/26 06:51:15;;;;;;;3.05;2.13;;;16.90;1.00;;;;;;5066679;28;20062;-88
2023/09/26 06:58:09;;;;;;;2.05;1.70;;;17.10;1.00;;;;;;5007586;28;20119;-90
2023/09/26 07:00:37;;;;;;;2.60;1.60;;;17.10;1.00;;;;;;5014790;28;20060;-90
2023/09/26 07:03:05;;;;;;;2.20;1.52;;;17.20;1.00;;;;;;5032668;28;20049;-91
2023/09/26 07:05:32;;;;;;;3.13;2.13;;;17.20;1.00;;;;;;5022270;28;20132;-92
2023/09/26 07:08:00;;;;;;;3.13;1.60;;;17.30;1.00;;;;;;5030389;28;20067;-93
2023/09/26 07:10:27;;;;;;;3.28;1.75;;;17.40;1.00;;;;;;5032634;28;20057;-91
2023/09/26 07:12:54;;;;;;;3.83;1.95;;;17.50;1.00;;;;;;5012982;28;20052;-91
2023/09/26 07:15:21;;;;;;;2.60;1.80;;;17.60;1.00;;;;;;5029656;28;20531;-90
2023/09/26 07:17:49;;;;;;;1.77;1.38;;;17.70;1.00;;;;;;5030755;28;20102;-91
2023/09/26 07:20:17;;;;;;;1.63;1.40;;;17.80;1.00;;;;;;5029821;28;20587;-90
2023/09/26 07:22:46;;;;;;;2.30;1.33;;;17.90;99.90;;;;;;5029617;28;20138;-90
2023/09/26 07:25:13;;;;;;;2.08;1.40;;;18.00;99.90;;;;;;5032623;28;20140;-90
2023/09/26 07:27:41;;;;;;;1.70;1.23;;;18.00;99.90;;;;;;4996525;28;20056;-90
2023/09/26 07:30:13;;;;;;;2.05;1.08;;;18.10;99.90;;;;;;5033238;28;20059;-92
2023/09/26 07:32:40;;;;;;;1.73;1.40;;;18.20;99.90;;;;;;5016539;28;20049;-90
2023/09/26 07:35:08;;;;;;;1.83;1.30;;;18.20;99.90;;;;;;5015033;28;20443;-89
2023/09/26 07:37:35;;;;;;;2.63;1.50;;;18.30;99.90;;;;;;5016041;28;20147;-90
2023/09/26 07:40:05;;;;;;;2.17;1.38;;;18.40;99.90;;;;;;5013843;28;20045;-92
2023/09/26 07:42:35;;;;;;;4.15;2.08;;;18.40;35.40;;;;;;5000494;28;20065;-90
2023/09/26 07:45:03;;;;;;;2.10;1.40;;;18.40;24.90;;;;;;5010912;28;20067;-90
2023/09/26 07:47:30;;;;;;;2.47;1.60;;;18.40;1.00;;;;;;4991590;28;20064;-90
2023/09/26 07:49:58;;;;;;;3.78;1.90;;;18.50;1.00;;;;;;5009364;28;20500;-91
2023/09/26 07:52:26;;;;;;;2.50;1.25;;;18.60;1.00;;;;;;5008377;28;20085;-91
2023/09/26 07:54:54;;;;;;;2.30;1.60;;;18.70;1.00;;;;;;5027814;28;20103;-91
2023/09/26 07:57:22;;;;;;;1.45;1.25;;;18.80;99.90;;;;;;5010050;28;20044;-91
2023/09/26 07:59:49;;;;;;;2.67;1.60;;;18.90;1.00;;;;;;5011222;28;20053;-91
2023/09/26 08:02:16;;;;;;;2.33;1.67;;;19.00;99.90;;;;;;5025102;28;20053;-91
2023/09/26 08:04:44;;;;;;;4.13;1.35;;;19.10;99.90;;;;;;5053952;28;20051;-92
2023/09/26 08:07:12;;;;;;;4.55;1.70;;;19.20;1.00;;;;;;5068276;28;20527;-92
2023/09/26 08:09:39;;;;;;;1.95;1.25;;;19.30;99.90;;;;;;5052765;28;20401;-89
2023/09/26 08:12:06;;;;;;;1.52;1.10;;;19.30;1.00;;;;;;5050457;28;20066;-92
2023/09/26 08:14:33;;;;;;;1.30;1.00;;;19.50;99.90;;;;;;5048347;28;20052;-90
2023/09/26 08:17:00;;;;;;;1.50;1.10;;;19.60;1.00;;;;;;5053432;28;20213;-91
2023/09/26 08:19:27;;;;;;;1.33;1.05;;;19.80;1.00;;;;;;5053725;28;20876;-90
2023/09/26 08:21:54;;;;;;;1.73;0.98;;;19.90;16.00;;;;;;5066980;28;20063;-94
2023/09/26 08:24:22;;;;;;;1.90;1.52;;;19.90;99.90;;;;;;5064078;28;20048;-93
2023/09/26 08:26:49;;;;;;;2.92;1.58;;;19.90;99.90;;;;;;5067554;28;20068;-94
2023/09/26 08:29:30;;;;;;;3.83;1.75;;;19.90;99.90;;;;;;5073987;28;20049;-93
2023/09/26 08:32:11;;;;;;;3.08;2.03;;;19.80;99.90;;;;;;5093391;28;20048;-94
2023/09/26 08:35:15;;;;;;;1.70;1.35;;;19.70;99.90;;;;;;5100014;28;20063;-94
2023/09/26 08:38:14;;;;;;;2.00;1.17;;;19.70;40.30;;;;;;5106712;28;20101;-93
2023/09/26 08:40:51;;;;;;;1.92;1.00;;;19.70;29.90;;;;;;5076800;28;20064;-93
2023/09/26 08:43:26;;;;;;;1.38;1.00;;;19.80;54.60;;;;;;5079599;28;20047;-94
2023/09/26 08:45:53;;;;;;;1.77;1.23;;;19.90;32.90;;;;;;5046904;28;20060;-88
2023/09/26 08:48:21;;;;;;;1.92;1.08;;;19.90;1.00;;;;;;5043145;28;20148;-78
2023/09/26 08:50:50;;;;;;;2.10;1.17;;;19.90;1.00;;;;;;5078359;28;20105;-78
2023/09/26 08:53:17;;;;;;;1.73;1.17;;;20.00;1.00;;;;;;5081248;28;20433;-78
2023/09/26 08:55:45;;;;;;;2.10;0.90;;;20.00;99.90;;;;;;5085041;28;20074;-78
2023/09/26 08:58:13;;;;;;;2.47;1.48;;;20.10;99.90;;;;;;5086739;28;20450;-78
2023/09/26 09:00:40;;;;;;;1.58;1.00;;;20.10;99.90;;;;;;5085816;28;20467;-78
2023/09/26 09:03:07;;;;;;;1.23;0.90;;;20.20;99.90;;;;;;5086419;28;20067;-78
2023/09/26 09:05:39;;;;;;;1.65;0.88;;;20.30;99.90;;;;;;5083555;28;20509;-78
2023/09/26 09:08:07;;;;;;;1.55;1.38;;;20.40;99.90;;;;;;5082295;28;20133;-78
2023/09/26 09:10:54;;;;;;;1.45;1.20;;;20.40;99.90;;;;;;5083934;28;20160;-78
2023/09/26 09:13:32;;;;;;;1.67;1.30;;;20.40;99.90;;;;;;5068277;28;20070;-78
2023/09/26 09:16:12;;;;;;;1.48;1.10;;;20.40;99.90;;;;;;5087139;28;20052;-77
2023/09/26 09:18:44;;;;;;;1.90;0.90;;;20.50;99.90;;;;;;5085447;28;20540;-77
2023/09/26 09:21:20;;;;;;;2.22;1.08;;;20.70;99.90;;;;;;5082612;28;20188;-77
2023/09/26 09:23:48;;;;;;;1.50;0.90;;;20.80;99.90;;;;;;5070292;28;20058;-77
2023/09/26 09:26:15;;;;;;;2.28;1.30;;;21.00;99.90;;;;;;5077745;28;20131;-78
2023/09/26 09:28:42;;;;;;;1.35;1.13;;;21.00;99.90;;;;;;5063590;28;20135;-78
2023/09/26 09:31:11;;;;;;;1.40;1.10;;;21.00;99.90;;;;;;5083436;28;20070;-78
2023/09/26 09:33:39;;;;;;;1.35;1.10;;;21.00;99.90;;;;;;5068427;28;20048;-78
2023/09/26 09:36:06;;;;;;;1.35;1.08;;;21.10;99.90;;;;;;5051837;28;20052;-78
2023/09/26 09:38:32;;;;;;;2.33;1.17;;;21.10;99.90;;;;;;5084189;28;20060;-77
2023/09/26 09:40:59;;;;;;;2.45;1.23;;;21.20;99.90;;;;;;5084666;28;20055;-78
2023/09/26 09:43:26;;;;;;;2.40;1.35;;;21.20;99.90;;;;;;5082019;28;20048;-77
2023/09/26 09:45:53;;;;;;;2.17;1.75;;;21.30;99.90;;;;;;5064606;28;20068;-78
2023/09/26 09:48:20;;;;;;;2.40;1.67;;;21.40;99.90;;;;;;5082948;28;20219;-78
2023/09/26 09:50:47;;;;;;;3.05;1.60;;;21.60;99.90;;;;;;5083765;28;20133;-78
2023/09/26 09:53:14;;;;;;;2.20;1.50;;;21.70;99.90;;;;;;5049738;28;20044;-78
2023/09/26 09:55:41;;;;;;;2.85;1.77;;;21.80;99.90;;;;;;5065871;28;20055;-78
2023/09/26 09:58:09;;;;;;;2.53;1.40;;;22.00;99.90;;;;;;5047290;28;20060;-78
2023/09/26 10:00:37;;;;;;;2.92;1.75;;;22.10;99.90;;;;;;5064774;28;20403;-78
2023/09/26 10:03:04;;;;;;;2.35;1.45;;;22.00;99.90;;;;;;5067196;28;20048;-78
2023/09/26 10:05:31;;;;;;;2.25;1.30;;;22.00;99.90;;;;;;5047592;28;20048;-78
2023/09/26 10:07:58;;;;;;;2.30;1.20;;;22.00;99.90;;;;;;5079528;28;20052;-78
2023/09/26 10:10:25;;;;;;;1.73;1.00;;;22.00;99.90;;;;;;5080696;28;20262;-78
2023/09/26 10:12:52;;;;;;;1.80;1.05;;;22.10;99.90;;;;;;5064086;28;20451;-78
2023/09/26 10:16:05;;;;;;;1.60;1.00;;;22.20;99.90;;;;;;5056193;28;20058;-77
2023/09/26 10:18:35;;;;;;;2.63;1.15;;;22.20;99.90;;;;;;5067935;28;20044;-78
2023/09/26 10:21:02;;;;;;;1.67;1.20;;;22.10;99.90;;;;;;5051266;28;20117;-78
2023/09/26 10:23:28;;;;;;;1.48;1.08;;;22.00;99.90;;;;;;5064805;28;20109;-78
2023/09/26 10:25:55;;;;;;;2.42;1.02;;;21.90;99.90;;;;;;5080670;28;20055;-78
2023/09/26 10:28:22;;;;;;;2.40;0.93;;;22.00;99.90;;;;;;5082257;28;20117;-77
2023/09/26 10:30:54;;;;;;;1.35;0.82;;;22.10;99.90;;;;;;5083675;28;20101;-78
2023/09/26 10:33:21;;;;;;;1.10;0.90;;;22.40;99.90;;;;;;5083696;28;20055;-78
2023/09/26 10:36:05;;;;;;;1.35;0.73;;;22.50;99.90;;;;;;5055616;28;20443;-78
2023/09/26 10:38:32;;;;;;;1.15;0.77;;;22.40;99.90;;;;;;5049519;28;20055;-77
2023/09/26 10:40:59;;;;;;;2.08;1.02;;;22.30;99.90;;;;;;5085194;28;20062;-78
2023/09/26 10:43:27;;;;;;;2.38;1.10;;;22.20;99.90;;;;;;5067452;28;20123;-78
2023/09/26 10:46:15;;;;;;;1.45;1.02;;;22.20;99.90;;;;;;5079563;28;20044;-78
2023/09/26 10:48:44;;;;;;;1.75;1.20;;;22.20;99.90;;;;;;5076575;28;20059;-79
2023/09/26 10:51:11;;;;;;;1.33;0.80;;;22.20;99.90;;;;;;5077327;28;20629;-78
2023/09/26 10:53:40;;;;;;;1.25;0.85;;;22.40;99.90;;;;;;5069559;28;20101;-78
2023/09/26 10:56:08;;;;;;;1.20;0.75;;;22.60;99.90;;;;;;5071362;28;20040;-78
2023/09/26 10:58:35;;;;;;;2.67;1.02;;;22.70;99.90;;;;;;5057692;28;20074;-77
2023/09/26 11:01:02;;;;;;;1.05;0.63;;;22.70;99.90;;;;;;5074902;28;20052;-78
2023/09/26 11:03:29;;;;;;;0.70;0.68;;;22.80;99.90;;;;;;5059365;28;20055;-78
2023/09/26 11:05:56;;;;;;;1.13;0.70;;;23.00;99.90;;;;;;5062292;28;20060;-77
2023/09/26 11:08:24;;;;;;;1.10;0.68;;;23.00;99.90;;;;;;5059744;28;20965;-78
2023/09/26 11:10:51;;;;;;;0.63;0.60;;;23.10;99.90;;;;;;5066524;28;20055;-78
2023/09/26 11:13:18;;;;;;;1.17;0.75;;;23.20;99.90;;;;;;5078472;28;20051;-78
2023/09/26 11:15:45;;;;;;;1.08;0.70;;;23.40;99.90;;;;;;5074943;28;20044;-77
2023/09/26 11:18:12;;;;;;;0.52;0.52;;;23.50;99.90;;;;;;5061400;28;20047;-78
2023/09/26 11:20:40;;;;;;;1.25;0.60;;;23.70;99.90;;;;;;5059084;28;20121;-79
2023/09/26 11:23:34;;;;;;;1.65;0.90;;;23.90;99.90;;;;;;5068859;28;20612;-79
2023/09/26 11:26:03;;;;;;;0.82;0.73;;;24.00;99.90;;;;;;5083002;28;20147;-78
2023/09/26 11:28:31;;;;;;;1.20;0.80;;;24.20;99.90;;;;;;5062244;28;20427;-78
2023/09/26 11:30:59;;;;;;;1.83;0.70;;;24.60;99.90;;;;;;5067888;28;20060;-78
2023/09/26 11:33:26;;;;;;;0.90;0.70;;;24.90;99.90;;;;;;5092468;28;20646;-78
2023/09/26 11:35:53;;;;;;;0.80;0.80;;;25.10;99.90;;;;;;5077784;28;20052;-78
2023/09/26 11:38:20;;;;;;;1.08;0.70;;;25.30;99.90;;;;;;5044648;28;20048;-78
2023/09/26 11:40:47;;;;;;;1.08;0.80;;;25.40;99.90;;;;;;5081256;28;20047;-78
2023/09/26 11:43:17;;;;;;;3.35;0.95;;;25.50;99.90;;;;;;5078400;28;20051;-79
2023/09/26 11:45:44;;;;;;;1.77;0.77;;;25.50;99.90;;;;;;5067783;28;20064;-78
2023/09/26 11:48:11;;;;;;;0.88;0.70;;;25.50;99.90;;;;;;5078464;28;20045;-77
2023/09/26 11:50:39;;;;;;;1.38;0.95;;;25.30;99.90;;;;;;5061248;28;20076;-78
2023/09/26 11:53:07;;;;;;;1.23;0.82;;;25.10;99.90;;;;;;5076765;28;20048;-78
2023/09/26 11:55:35;;;;;;;1.58;0.73;;;25.30;99.90;;;;;;5046225;28;20144;-77
2023/09/26 11:58:02;;;;;;;0.82;0.65;;;25.20;99.90;;;;;;5044196;28;20162;-78
2023/09/26 12:00:29;;;;;;;1.83;0.80;;;25.20;99.90;;;;;;5060596;28;20067;-77
2023/09/26 12:02:57;;;;;;;2.10;1.17;;;25.00;99.30;;;;;;5073258;28;20729;-78
2023/09/26 12:05:24;;;;;;;1.73;0.80;;;24.70;99.90;;;;;;5061911;28;20052;-78
2023/09/26 12:07:51;;;;;;;1.85;0.90;;;24.80;98.80;;;;;;5057960;28;20044;-78
2023/09/26 12:10:19;;;;;;;1.58;0.90;;;25.30;99.00;;;;;;5068707;28;20124;-79
2023/09/26 12:12:46;;;;;;;1.50;0.70;;;25.60;97.40;;;;;;5070583;28;20048;-79
2023/09/26 12:15:20;;;;;;;1.13;0.80;;;25.60;95.60;;;;;;5077329;28;20048;-79
2023/09/26 12:17:48;;;;;;;1.67;0.93;;;25.40;93.80;;;;;;5074911;28;20093;-79
2023/09/26 12:20:22;;;;;;;0.68;0.60;;;25.60;93.60;;;;;;5043828;28;20611;-79
2023/09/26 12:22:50;;;;;;;1.25;0.70;;;25.80;92.60;;;;;;5052822;28;20048;-79
2023/09/26 12:25:22;;;;;;;1.60;0.98;;;26.00;91.40;;;;;;5058581;28;20048;-79
2023/09/26 12:27:52;;;;;;;;;;;26.20;90.90;;;;;;5049973;28;20049;-79
2023/09/26 12:30:20;;;;;;;1.13;0.63;;;26.60;90.40;;;;;;5059759;28;19982;-80
2023/09/26 12:32:47;;;;;;;0.80;0.60;;;26.90;87.80;;;;;;5086095;28;20051;-79
2023/09/26 12:35:14;;;;;;;0.88;0.68;;;27.30;88.30;;;;;;5054950;28;20043;-80
2023/09/26 12:37:41;;;;;;;1.33;0.80;;;27.50;83.50;;;;;;5075120;28;20047;-79
2023/09/26 12:40:12;;;;;;;1.52;0.70;;;27.70;77.30;;;;;;5058866;28;20133;-80
2023/09/26 12:42:41;;;;;;;1.35;0.80;;;27.80;74.30;;;;;;5077635;28;20054;-79
2023/09/26 12:45:08;;;;;;;1.58;1.00;;;27.70;69.30;;;;;;5061677;28;20101;-79
2023/09/26 12:47:35;;;;;;;1.10;0.80;;;27.70;68.30;;;;;;5060410;28;20117;-79
2023/09/26 12:50:05;;;;;;;0.80;0.60;;;28.10;66.60;;;;;;5070765;28;20073;-79
2023/09/26 12:52:33;;;;;;;0.90;0.60;;;28.50;63.20;;;;;;5048847;28;20117;-79
2023/09/26 12:55:00;;;;;;;1.08;0.93;;;28.40;58.20;;;;;;5075104;28;20071;-79
2023/09/26 12:57:27;;;;;;;2.10;0.90;;;28.00;47.50;;;;;;5062620;28;20218;-79
2023/09/26 12:59:55;;;;;;;0.88;0.73;;;28.00;49.30;;;;;;5058652;28;20084;-79
2023/09/26 13:02:23;;;;;;;1.23;0.85;;;28.20;44.60;;;;;;5075646;28;20052;-79
2023/09/26 13:04:54;;;;;;;0.65;0.63;;;28.30;39.50;;;;;;5076647;28;20131;-81
2023/09/26 13:07:21;;;;;;;1.35;0.70;;;28.40;41.00;;;;;;5056627;28;20052;-80
2023/09/26 13:09:48;;;;;;;0.98;0.70;;;28.50;38.60;;;;;;5052690;28;20047;-81
2023/09/26 13:12:15;;;;;;;0.95;0.70;;;28.60;37.10;;;;;;5074092;28;20048;-81
2023/09/26 13:14:42;;;;;;;1.15;0.90;;;28.70;32.50;;;;;;5060117;28;20075;-81
2023/09/26 13:17:12;;;;;;;1.58;0.80;;;28.80;32.30;;;;;;5072383;28;20116;-81
2023/09/26 13:19:40;;;;;;;0.75;0.57;;;28.60;29.30;;;;;;5074064;28;20085;-80
2023/09/26 13:22:07;;;;;;;1.10;0.80;;;28.80;28.80;;;;;;5074297;28;20141;-81
2023/09/26 13:24:37;;;;;;;1.52;0.80;;;28.80;25.60;;;;;;5075381;28;20130;-78
2023/09/26 13:27:04;;;;;;;0.80;0.60;;;28.70;21.80;;;;;;5077306;28;20062;-79